createdAt,value
2017-02-04T00:00:25.727Z,0
2017-02-04T00:01:25.700Z,0
2017-02-04T00:02:25.682Z,0
2017-02-04T00:03:25.677Z,0
2017-02-04T00:04:25.663Z,0
2017-02-04T00:05:25.650Z,0
2017-02-04T00:06:25.247Z,0
2017-02-04T00:07:25.634Z,0
2017-02-04T00:08:25.608Z,0
2017-02-04T00:09:25.594Z,0
2017-02-04T00:10:25.583Z,0
2017-02-04T00:11:25.567Z,0
2017-02-04T00:12:25.561Z,0
2017-02-04T00:13:25.545Z,0
2017-02-04T00:14:25.531Z,0
2017-02-04T00:15:25.528Z,0
2017-02-04T00:16:25.511Z,0
2017-02-04T00:17:25.501Z,0
2017-02-04T00:18:25.482Z,0
2017-02-04T00:19:25.469Z,0
2017-02-04T00:20:25.458Z,0
2017-02-04T00:21:25.444Z,0
2017-02-04T00:22:25.433Z,0
2017-02-04T00:23:25.420Z,0
2017-02-04T00:24:25.405Z,0
2017-02-04T00:25:25.396Z,0
2017-02-04T00:26:25.381Z,0
2017-02-04T00:27:25.370Z,0
2017-02-04T00:28:25.348Z,0
2017-02-04T00:29:25.344Z,0
2017-02-04T00:30:25.330Z,0
2017-02-04T00:31:25.312Z,0
2017-02-04T00:32:25.301Z,0
2017-02-04T00:33:25.285Z,0
2017-02-04T00:34:25.276Z,0
2017-02-04T00:35:25.263Z,0
2017-02-04T00:36:25.248Z,0
2017-02-04T00:37:25.241Z,0
2017-02-04T00:38:25.227Z,0
2017-02-04T00:39:25.210Z,0
2017-02-04T00:40:25.198Z,0
2017-02-04T00:41:25.190Z,0
2017-02-04T00:42:25.174Z,0
2017-02-04T00:43:25.166Z,0
2017-02-04T00:44:25.145Z,0
2017-02-04T00:45:25.140Z,0
2017-02-04T00:46:25.121Z,0
2017-02-04T00:47:25.118Z,0
2017-02-04T00:48:25.097Z,0
2017-02-04T00:49:25.088Z,0
2017-02-04T00:50:25.070Z,0
2017-02-04T00:51:25.058Z,0
2017-02-04T00:52:25.049Z,0
2017-02-04T00:53:25.028Z,0
2017-02-04T00:54:25.021Z,0
2017-02-04T00:55:25.008Z,0
2017-02-04T00:56:24.997Z,0
2017-02-04T00:57:24.983Z,0
2017-02-04T00:58:24.966Z,0
2017-02-04T00:59:24.954Z,0
2017-02-04T01:00:24.941Z,0
2017-02-04T01:01:24.928Z,0
2017-02-04T01:02:24.534Z,0
2017-02-04T01:03:24.907Z,0
2017-02-04T01:04:24.890Z,0
2017-02-04T01:05:24.877Z,0
2017-02-04T01:06:24.867Z,0
2017-02-04T01:07:24.852Z,0
2017-02-04T01:08:24.844Z,0
2017-02-04T01:09:24.826Z,0
2017-02-04T01:10:24.427Z,0
2017-02-04T01:11:24.803Z,0
2017-02-04T01:12:24.788Z,0
2017-02-04T01:13:24.779Z,0
2017-02-04T01:14:24.761Z,0
2017-02-04T01:15:24.753Z,0
2017-02-04T01:16:24.353Z,0
2017-02-04T01:17:24.727Z,0
2017-02-04T01:18:24.710Z,0
2017-02-04T01:19:24.697Z,0
2017-02-04T01:20:24.299Z,0
2017-02-04T01:21:24.668Z,0
2017-02-04T01:22:24.662Z,0
2017-02-04T01:23:24.643Z,0
2017-02-04T01:24:24.636Z,0
2017-02-04T01:25:24.616Z,0
2017-02-04T01:26:24.606Z,0
2017-02-04T01:27:24.594Z,0
2017-02-04T01:28:24.578Z,0
2017-02-04T01:29:24.571Z,0
2017-02-04T01:30:24.554Z,0
2017-02-04T01:31:24.546Z,0
2017-02-04T01:32:24.522Z,0
2017-02-04T01:33:24.526Z,0
2017-02-04T01:34:24.504Z,0
2017-02-04T01:35:24.108Z,0
2017-02-04T01:36:24.479Z,0
2017-02-04T01:37:24.461Z,0
2017-02-04T01:38:24.804Z,0
2017-02-04T01:39:24.439Z,0
2017-02-04T01:40:24.429Z,0
2017-02-04T01:41:24.410Z,0
2017-02-04T01:42:24.400Z,0
2017-02-04T01:43:24.003Z,0
2017-02-04T01:44:24.380Z,0
2017-02-04T01:45:24.359Z,0
2017-02-04T01:46:24.350Z,0
2017-02-04T01:47:24.337Z,0
2017-02-04T01:48:24.325Z,0
2017-02-04T01:49:24.305Z,0
2017-02-04T01:50:24.296Z,0
2017-02-04T01:51:24.282Z,0
2017-02-04T01:52:24.274Z,0
2017-02-04T01:53:24.257Z,0
2017-02-04T01:54:24.242Z,0
2017-02-04T01:55:24.230Z,0
2017-02-04T01:56:24.223Z,0
2017-02-04T01:57:24.204Z,0
2017-02-04T01:58:24.189Z,0
2017-02-04T01:59:24.179Z,0
2017-02-04T02:00:24.165Z,0
2017-02-04T02:01:24.159Z,0
2017-02-04T02:02:24.145Z,0
2017-02-04T02:03:24.127Z,0
2017-02-04T02:04:24.112Z,0
2017-02-04T02:05:24.095Z,0
2017-02-04T02:06:24.084Z,0
2017-02-04T02:07:24.072Z,0
2017-02-04T02:08:24.064Z,0
2017-02-04T02:09:24.052Z,0
2017-02-04T02:10:24.035Z,0
2017-02-04T02:11:24.033Z,0
2017-02-04T02:12:24.007Z,0
2017-02-04T02:13:23.997Z,0
2017-02-04T02:14:23.984Z,0
2017-02-04T02:15:23.978Z,0
2017-02-04T02:16:23.956Z,0
2017-02-04T02:17:23.948Z,0
2017-02-04T02:18:23.930Z,0
2017-02-04T02:19:23.916Z,0
2017-02-04T02:20:23.908Z,0
2017-02-04T02:21:23.929Z,0
2017-02-04T02:22:23.882Z,0
2017-02-04T02:23:23.860Z,0
2017-02-04T02:24:23.858Z,0
2017-02-04T02:25:23.873Z,0
2017-02-04T02:26:23.828Z,0
2017-02-04T02:27:23.857Z,0
2017-02-04T02:28:23.801Z,0
2017-02-04T02:29:23.403Z,0
2017-02-04T02:30:23.775Z,0
2017-02-04T02:31:23.762Z,0
2017-02-04T02:32:23.744Z,0
2017-02-04T02:33:23.734Z,0
2017-02-04T02:34:23.716Z,0
2017-02-04T02:35:23.706Z,0
2017-02-04T02:36:23.689Z,0
2017-02-04T02:37:23.683Z,0
2017-02-04T02:38:23.667Z,0
2017-02-04T02:39:23.658Z,0
2017-02-04T02:40:23.648Z,0
2017-02-04T02:41:23.626Z,0
2017-02-04T02:42:23.618Z,0
2017-02-04T02:43:23.600Z,0
2017-02-04T02:44:23.589Z,0
2017-02-04T02:45:23.575Z,0
2017-02-04T02:46:23.567Z,0
2017-02-04T02:47:23.550Z,0
2017-02-04T02:48:23.148Z,0
2017-02-04T02:49:23.526Z,0
2017-02-04T02:50:23.510Z,0
2017-02-04T02:51:23.494Z,0
2017-02-04T02:52:23.513Z,0
2017-02-04T02:53:23.467Z,0
2017-02-04T02:54:23.455Z,0
2017-02-04T02:55:23.478Z,0
2017-02-04T02:56:23.425Z,0
2017-02-04T02:57:23.423Z,0
2017-02-04T02:58:23.403Z,0
2017-02-04T02:59:23.389Z,0
2017-02-04T03:00:23.376Z,0
2017-02-04T03:01:23.363Z,0
2017-02-04T03:02:23.350Z,0
2017-02-04T03:03:23.334Z,0
2017-02-04T03:04:23.326Z,0
2017-02-04T03:05:23.310Z,0
2017-02-04T03:06:23.291Z,0
2017-02-04T03:07:23.286Z,0
2017-02-04T03:08:23.266Z,0
2017-02-04T03:09:23.266Z,0
2017-02-04T03:10:23.241Z,0
2017-02-04T03:11:23.244Z,0
2017-02-04T03:12:22.836Z,0
2017-02-04T03:13:23.199Z,0
2017-02-04T03:14:23.189Z,0
2017-02-04T03:15:23.176Z,0
2017-02-04T03:16:23.159Z,0
2017-02-04T03:17:23.156Z,0
2017-02-04T03:18:23.134Z,0
2017-02-04T03:19:23.124Z,0
2017-02-04T03:20:23.147Z,0
2017-02-04T03:21:23.102Z,0
2017-02-04T03:22:23.112Z,0
2017-02-04T03:23:23.068Z,0
2017-02-04T03:24:23.054Z,0
2017-02-04T03:25:23.041Z,0
2017-02-04T03:26:23.071Z,0
2017-02-04T03:27:23.020Z,0
2017-02-04T03:28:22.994Z,0
2017-02-04T03:29:22.985Z,0
2017-02-04T03:30:22.975Z,0
2017-02-04T03:31:22.961Z,0
2017-02-04T03:32:22.947Z,0
2017-02-04T03:33:22.928Z,0
2017-02-04T03:34:22.916Z,0
2017-02-04T03:35:22.519Z,0
2017-02-04T03:36:22.505Z,0
2017-02-04T03:37:22.881Z,0
2017-02-04T03:38:22.865Z,0
2017-02-04T03:39:22.854Z,0
2017-02-04T03:40:22.835Z,0
2017-02-04T03:41:22.831Z,0
2017-02-04T03:42:22.812Z,0
2017-02-04T03:43:22.416Z,0
2017-02-04T03:44:22.787Z,0
2017-02-04T03:45:22.812Z,0
2017-02-04T03:46:22.762Z,0
2017-02-04T03:47:22.746Z,0
2017-02-04T03:48:22.735Z,0
2017-02-04T03:49:22.724Z,0
2017-02-04T03:50:22.705Z,0
2017-02-04T03:51:22.692Z,0
2017-02-04T03:52:22.683Z,0
2017-02-04T03:53:22.668Z,0
2017-02-04T03:54:22.693Z,0
2017-02-04T03:55:22.644Z,0
2017-02-04T03:56:22.629Z,0
2017-02-04T03:57:22.651Z,0
2017-02-04T03:58:22.213Z,0
2017-02-04T03:59:22.624Z,0
2017-02-04T04:00:22.577Z,0
2017-02-04T04:01:22.170Z,0
2017-02-04T04:02:22.551Z,0
2017-02-04T04:03:22.533Z,0
2017-02-04T04:04:22.524Z,0
2017-02-04T04:05:22.503Z,0
2017-02-04T04:06:22.108Z,0
2017-02-04T04:07:22.123Z,0
2017-02-04T04:08:22.464Z,0
2017-02-04T04:09:22.452Z,0
2017-02-04T04:10:22.442Z,0
2017-02-04T04:11:22.439Z,0
2017-02-04T04:12:22.417Z,0
2017-02-04T04:13:22.398Z,0
2017-02-04T04:14:22.387Z,0
2017-02-04T04:15:22.412Z,0
2017-02-04T04:16:22.394Z,0
2017-02-04T04:17:22.384Z,0
2017-02-04T04:18:22.339Z,0
2017-02-04T04:19:21.935Z,0
2017-02-04T04:20:22.304Z,0
2017-02-04T04:21:22.295Z,0
2017-02-04T04:22:22.285Z,0
2017-02-04T04:23:22.274Z,0
2017-02-04T04:24:22.251Z,0
2017-02-04T04:25:22.243Z,0
2017-02-04T04:26:22.228Z,0
2017-02-04T04:27:22.211Z,0
2017-02-04T04:28:22.199Z,0
2017-02-04T04:29:22.186Z,0
2017-02-04T04:30:22.175Z,0
2017-02-04T04:31:22.161Z,0
2017-02-04T04:32:22.147Z,0
2017-02-04T04:33:22.159Z,0
2017-02-04T04:34:22.131Z,0
2017-02-04T04:35:22.106Z,0
2017-02-04T04:36:22.098Z,0
2017-02-04T04:37:22.078Z,0
2017-02-04T04:38:22.071Z,0
2017-02-04T04:39:22.052Z,0
2017-02-04T04:40:22.043Z,0
2017-02-04T04:41:22.023Z,0
2017-02-04T04:42:22.015Z,0
2017-02-04T04:43:21.997Z,0
2017-02-04T04:44:21.604Z,0
2017-02-04T04:45:21.978Z,0
2017-02-04T04:46:21.963Z,0
2017-02-04T04:47:21.946Z,0
2017-02-04T04:48:21.937Z,0
2017-02-04T04:49:21.531Z,0
2017-02-04T04:50:21.907Z,0
2017-02-04T04:51:21.891Z,0
2017-02-04T04:52:21.881Z,0
2017-02-04T04:53:21.864Z,0
2017-02-04T04:54:21.853Z,0
2017-02-04T04:55:21.840Z,0
2017-02-04T04:56:21.832Z,0
2017-02-04T04:57:21.817Z,0
2017-02-04T04:58:21.803Z,0
2017-02-04T04:59:21.790Z,0
2017-02-04T05:00:21.776Z,0
2017-02-04T05:01:21.762Z,0
2017-02-04T05:02:21.747Z,0
2017-02-04T05:03:21.734Z,0
2017-02-04T05:04:21.726Z,0
2017-02-04T05:05:21.710Z,0
2017-02-04T05:06:21.700Z,0
2017-02-04T05:07:21.680Z,0
2017-02-04T05:08:21.667Z,0
2017-02-04T05:09:21.691Z,0
2017-02-04T05:10:21.641Z,0
2017-02-04T05:11:21.632Z,0
2017-02-04T05:12:21.612Z,0
2017-02-04T05:13:21.227Z,0
2017-02-04T05:14:21.203Z,0
2017-02-04T05:15:21.574Z,0
2017-02-04T05:16:21.560Z,0
2017-02-04T05:17:21.598Z,0
2017-02-04T05:18:21.534Z,0
2017-02-04T05:19:21.526Z,0
2017-02-04T05:20:21.515Z,0
2017-02-04T05:21:21.498Z,0
2017-02-04T05:22:21.482Z,0
2017-02-04T05:23:21.468Z,0
2017-02-04T05:24:21.070Z,0
2017-02-04T05:25:21.452Z,0
2017-02-04T05:26:21.432Z,0
2017-02-04T05:27:21.421Z,0
2017-02-04T05:28:21.400Z,0
2017-02-04T05:29:21.391Z,0
2017-02-04T05:30:21.375Z,0
2017-02-04T05:31:21.366Z,0
2017-02-04T05:32:21.347Z,0
2017-02-04T05:33:21.345Z,0
2017-02-04T05:34:21.324Z,0
2017-02-04T05:35:21.305Z,0
2017-02-04T05:36:21.293Z,0
2017-02-04T05:37:21.285Z,0
2017-02-04T05:38:21.270Z,0
2017-02-04T05:39:20.866Z,0
2017-02-04T05:40:21.247Z,0
2017-02-04T05:41:20.847Z,0
2017-02-04T05:42:21.215Z,0
2017-02-04T05:43:21.205Z,0
2017-02-04T05:44:21.185Z,0
2017-02-04T05:45:21.173Z,0
2017-02-04T05:46:20.772Z,0
2017-02-04T05:47:20.760Z,0
2017-02-04T05:48:21.135Z,0
2017-02-04T05:49:21.126Z,0
2017-02-04T05:50:20.722Z,0
2017-02-04T05:51:20.714Z,0
2017-02-04T05:52:21.082Z,0
2017-02-04T05:53:21.062Z,0
2017-02-04T05:54:21.057Z,0
2017-02-04T05:55:21.048Z,0
2017-02-04T05:56:20.641Z,0
2017-02-04T05:57:21.014Z,0
2017-02-04T05:58:21.002Z,0
2017-02-04T05:59:20.995Z,0
2017-02-04T06:00:20.974Z,0
2017-02-04T06:01:20.962Z,0
2017-02-04T06:02:20.949Z,0
2017-02-04T06:03:20.934Z,0
2017-02-04T06:04:20.932Z,0
2017-02-04T06:05:20.906Z,0
2017-02-04T06:06:20.514Z,0
2017-02-04T06:07:20.886Z,0
2017-02-04T06:08:20.866Z,0
2017-02-04T06:09:20.916Z,4
2017-02-04T06:10:20.838Z,4
2017-02-04T06:11:20.826Z,4
2017-02-04T06:12:20.815Z,0
2017-02-04T06:13:20.799Z,4
2017-02-04T06:14:20.791Z,4
2017-02-04T06:15:20.777Z,4
2017-02-04T06:16:20.764Z,4
2017-02-04T06:17:20.746Z,8
2017-02-04T06:18:20.739Z,8
2017-02-04T06:19:20.724Z,8
2017-02-04T06:20:20.709Z,12
2017-02-04T06:21:20.689Z,12
2017-02-04T06:22:20.679Z,16
2017-02-04T06:23:20.668Z,20
2017-02-04T06:24:20.656Z,20
2017-02-04T06:25:20.645Z,24
2017-02-04T06:26:20.626Z,28
2017-02-04T06:27:20.226Z,32
2017-02-04T06:28:20.598Z,40
2017-02-04T06:29:20.584Z,44
2017-02-04T06:30:20.577Z,48
2017-02-04T06:31:20.568Z,56
2017-02-04T06:32:20.551Z,64
2017-02-04T06:33:20.544Z,72
2017-02-04T06:34:20.523Z,80
2017-02-04T06:35:20.508Z,88
2017-02-04T06:36:20.492Z,100
2017-02-04T06:37:20.480Z,116
2017-02-04T06:38:20.473Z,128
2017-02-04T06:39:20.454Z,140
2017-02-04T06:40:20.438Z,156
2017-02-04T06:41:20.433Z,176
2017-02-04T06:42:20.413Z,192
2017-02-04T06:43:20.396Z,208
2017-02-04T06:44:20.382Z,220
2017-02-04T06:45:20.371Z,232
2017-02-04T06:46:19.976Z,244
2017-02-04T06:47:20.350Z,260
2017-02-04T06:48:20.330Z,284
2017-02-04T06:49:20.314Z,292
2017-02-04T06:50:20.305Z,320
2017-02-04T06:51:20.298Z,348
2017-02-04T06:52:20.280Z,388
2017-02-04T06:53:20.268Z,404
2017-02-04T06:54:20.257Z,416
2017-02-04T06:55:20.240Z,444
2017-02-04T06:56:20.225Z,464
2017-02-04T06:57:20.245Z,492
2017-02-04T06:58:20.200Z,540
2017-02-04T06:59:20.192Z,576
2017-02-04T07:00:20.171Z,620
2017-02-04T07:01:20.161Z,672
2017-02-04T07:02:20.145Z,700
2017-02-04T07:03:20.134Z,732
2017-02-04T07:04:19.731Z,736
2017-02-04T07:05:20.107Z,808
2017-02-04T07:06:19.707Z,832
2017-02-04T07:07:20.082Z,884
2017-02-04T07:08:20.067Z,916
2017-02-04T07:09:20.059Z,972
2017-02-04T07:10:20.035Z,1036
2017-02-04T07:11:20.027Z,1120
2017-02-04T07:12:19.624Z,1152
2017-02-04T07:13:19.993Z,1220
2017-02-04T07:14:19.986Z,1272
2017-02-04T07:15:19.971Z,1352
2017-02-04T07:16:19.961Z,1404
2017-02-04T07:17:19.941Z,1476
2017-02-04T07:18:19.543Z,1544
2017-02-04T07:19:19.920Z,1572
2017-02-04T07:20:19.912Z,1816
2017-02-04T07:21:19.894Z,1748
2017-02-04T07:22:19.880Z,1744
2017-02-04T07:23:19.861Z,1816
2017-02-04T07:24:19.853Z,1804
2017-02-04T07:25:19.840Z,1856
2017-02-04T07:26:19.824Z,1812
2017-02-04T07:27:19.819Z,1896
2017-02-04T07:28:19.807Z,1896
2017-02-04T07:29:19.793Z,1972
2017-02-04T07:30:19.775Z,2108
2017-02-04T07:31:19.764Z,1988
2017-02-04T07:32:19.748Z,2068
2017-02-04T07:33:19.731Z,2040
2017-02-04T07:34:19.723Z,2072
2017-02-04T07:35:19.712Z,2096
2017-02-04T07:36:19.698Z,2548
2017-02-04T07:37:19.686Z,2672
2017-02-04T07:38:19.668Z,2604
2017-02-04T07:39:19.658Z,2320
2017-02-04T07:40:19.666Z,2392
2017-02-04T07:41:19.628Z,2536
2017-02-04T07:42:19.615Z,2884
2017-02-04T07:43:19.604Z,2764
2017-02-04T07:44:19.594Z,2944
2017-02-04T07:45:19.579Z,2700
2017-02-04T07:46:19.178Z,2772
2017-02-04T07:47:19.601Z,3076
2017-02-04T07:48:19.536Z,3136
2017-02-04T07:49:19.527Z,2996
2017-02-04T07:50:19.122Z,3252
2017-02-04T07:51:19.501Z,3124
2017-02-04T07:52:19.101Z,3268
2017-02-04T07:53:19.472Z,3200
2017-02-04T07:54:19.460Z,3392
2017-02-04T07:55:19.448Z,3560
2017-02-04T07:56:19.437Z,3640
2017-02-04T07:57:19.426Z,3804
2017-02-04T07:58:19.408Z,3844
2017-02-04T07:59:19.400Z,3760
2017-02-04T08:00:19.396Z,4024
2017-02-04T08:01:19.376Z,4196
2017-02-04T08:02:19.362Z,4348
2017-02-04T08:03:19.354Z,4368
2017-02-04T08:04:19.338Z,5048
2017-02-04T08:05:19.340Z,5180
2017-02-04T08:06:18.927Z,5616
2017-02-04T08:07:19.305Z,5336
2017-02-04T08:08:19.288Z,5624
2017-02-04T08:09:19.273Z,5224
2017-02-04T08:10:18.875Z,5416
2017-02-04T08:11:19.243Z,5188
2017-02-04T08:12:19.236Z,5172
2017-02-04T08:13:19.219Z,5272
2017-02-04T08:14:19.211Z,5576
2017-02-04T08:15:19.202Z,5376
2017-02-04T08:16:18.797Z,5932
2017-02-04T08:17:19.175Z,6048
2017-02-04T08:18:19.163Z,6172
2017-02-04T08:19:19.148Z,6916
2017-02-04T08:20:19.141Z,6428
2017-02-04T08:21:19.125Z,6932
2017-02-04T08:22:19.117Z,6148
2017-02-04T08:23:18.715Z,6508
2017-02-04T08:24:18.711Z,6848
2017-02-04T08:25:18.685Z,6012
2017-02-04T08:26:18.293Z,6748
2017-02-04T08:27:19.055Z,5736
2017-02-04T08:28:19.048Z,6164
2017-02-04T08:29:19.031Z,6252
2017-02-04T08:30:19.021Z,6208
2017-02-04T08:31:19.009Z,5780
2017-02-04T08:32:19.003Z,6340
2017-02-04T08:33:18.985Z,6716
2017-02-04T08:34:18.970Z,6604
2017-02-04T08:35:18.964Z,6644
2017-02-04T08:36:18.949Z,6288
2017-02-04T08:37:18.938Z,5932
2017-02-04T08:38:18.931Z,6004
2017-02-04T08:39:18.913Z,6044
2017-02-04T08:40:18.931Z,5620
2017-02-04T08:41:18.899Z,7220
2017-02-04T08:42:18.882Z,5872
2017-02-04T08:43:18.489Z,5000
2017-02-04T08:44:18.864Z,4796
2017-02-04T08:45:18.852Z,4728
2017-02-04T08:46:18.839Z,4672
2017-02-04T08:47:18.436Z,5012
2017-02-04T08:48:18.814Z,4904
2017-02-04T08:49:18.804Z,4576
2017-02-04T08:50:19.141Z,4964
2017-02-04T08:51:18.780Z,4660
2017-02-04T08:52:18.766Z,4820
2017-02-04T08:53:18.377Z,4868
2017-02-04T08:54:18.748Z,5312
2017-02-04T08:55:18.740Z,5168
2017-02-04T08:56:18.719Z,5460
2017-02-04T08:57:18.715Z,5972
2017-02-04T08:58:18.703Z,6132
2017-02-04T08:59:18.691Z,6436
2017-02-04T09:00:18.677Z,7204
2017-02-04T09:01:18.675Z,7160
2017-02-04T09:02:18.655Z,7220
2017-02-04T09:03:18.646Z,6972
2017-02-04T09:04:18.636Z,7016
2017-02-04T09:05:18.619Z,5868
2017-02-04T09:06:18.232Z,5540
2017-02-04T09:07:18.601Z,5964
2017-02-04T09:08:18.585Z,7076
2017-02-04T09:09:18.580Z,8132
2017-02-04T09:10:18.567Z,6852
2017-02-04T09:11:18.563Z,5452
2017-02-04T09:12:18.544Z,5828
2017-02-04T09:13:18.545Z,8180
2017-02-04T09:14:18.528Z,7868
2017-02-04T09:15:18.509Z,6812
2017-02-04T09:16:18.501Z,7840
2017-02-04T09:17:18.489Z,7860
2017-02-04T09:18:18.515Z,7100
2017-02-04T09:19:18.475Z,8064
2017-02-04T09:20:18.450Z,8260
2017-02-04T09:21:18.441Z,8420
2017-02-04T09:22:18.467Z,7356
2017-02-04T09:23:18.423Z,7756
2017-02-04T09:24:18.418Z,8556
2017-02-04T09:25:18.406Z,8836
2017-02-04T09:26:18.396Z,8576
2017-02-04T09:27:18.000Z,8268
2017-02-04T09:28:18.369Z,9136
2017-02-04T09:29:18.355Z,7476
2017-02-04T09:30:18.354Z,7504
2017-02-04T09:31:18.335Z,8764
2017-02-04T09:32:18.328Z,8400
2017-02-04T09:33:18.316Z,7904
2017-02-04T09:34:18.306Z,7900
2017-02-04T09:35:18.296Z,7628
2017-02-04T09:36:18.284Z,8396
2017-02-04T09:37:18.270Z,8364
2017-02-04T09:38:18.269Z,8252
2017-02-04T09:39:18.258Z,9212
2017-02-04T09:40:17.857Z,7212
2017-02-04T09:41:18.225Z,8028
2017-02-04T09:42:18.216Z,9708
2017-02-04T09:43:18.205Z,8748
2017-02-04T09:44:18.196Z,9296
2017-02-04T09:45:18.196Z,8324
2017-02-04T09:46:18.174Z,9056
2017-02-04T09:47:18.170Z,7980
2017-02-04T09:48:17.766Z,9172
2017-02-04T09:49:18.145Z,9508
2017-02-04T09:50:18.138Z,7712
2017-02-04T09:51:18.126Z,7764
2017-02-04T09:52:18.111Z,7952
2017-02-04T09:53:18.110Z,8532
2017-02-04T09:54:18.092Z,9320
2017-02-04T09:55:17.695Z,7572
2017-02-04T09:56:18.077Z,7448
2017-02-04T09:57:18.064Z,6928
2017-02-04T09:58:18.056Z,7456
2017-02-04T09:59:18.052Z,7236
2017-02-04T10:00:18.031Z,7896
2017-02-04T10:01:18.031Z,7440
2017-02-04T10:02:18.013Z,6860
2017-02-04T10:03:18.007Z,6644
2017-02-04T10:04:18.000Z,6684
2017-02-04T10:05:17.982Z,6576
2017-02-04T10:06:17.984Z,8620
2017-02-04T10:07:17.963Z,7220
2017-02-04T10:08:17.982Z,5880
2017-02-04T10:09:17.947Z,6112
2017-02-04T10:10:17.548Z,5960
2017-02-04T10:11:17.926Z,6228
2017-02-04T10:12:17.528Z,6500
2017-02-04T10:13:17.903Z,6712
2017-02-04T10:14:17.892Z,6488
2017-02-04T10:15:17.887Z,7460
2017-02-04T10:16:17.881Z,8284
2017-02-04T10:17:17.862Z,8604
2017-02-04T10:18:17.850Z,9380
2017-02-04T10:19:17.842Z,10652
2017-02-04T10:20:17.834Z,10252
2017-02-04T10:21:17.820Z,11428
2017-02-04T10:22:17.811Z,12116
2017-02-04T10:23:17.800Z,12064
2017-02-04T10:24:17.801Z,11332
2017-02-04T10:25:17.775Z,9892
2017-02-04T10:26:17.774Z,9532
2017-02-04T10:27:17.377Z,9592
2017-02-04T10:28:17.754Z,9988
2017-02-04T10:29:17.358Z,10672
2017-02-04T10:30:17.731Z,12396
2017-02-04T10:31:17.332Z,12288
2017-02-04T10:32:17.716Z,12008
2017-02-04T10:33:17.698Z,12956
2017-02-04T10:34:17.309Z,13160
2017-02-04T10:35:17.687Z,11860
2017-02-04T10:36:17.289Z,13932
2017-02-04T10:37:17.272Z,12724
2017-02-04T10:38:17.689Z,13260
2017-02-04T10:39:17.647Z,11988
2017-02-04T10:40:17.246Z,13788
2017-02-04T10:41:17.239Z,10496
2017-02-04T10:42:17.620Z,13324
2017-02-04T10:43:17.602Z,9760
2017-02-04T10:44:17.598Z,13000
2017-02-04T10:45:17.593Z,13328
2017-02-04T10:46:17.194Z,11268
2017-02-04T10:47:17.608Z,12752
2017-02-04T10:48:17.173Z,12796
2017-02-04T10:49:17.169Z,10652
2017-02-04T10:50:17.547Z,11592
2017-02-04T10:51:17.533Z,10308
2017-02-04T10:52:17.525Z,11656
2017-02-04T10:53:17.520Z,9980
2017-02-04T10:54:17.507Z,10012
2017-02-04T10:55:17.500Z,8788
2017-02-04T10:56:17.494Z,8440
2017-02-04T10:57:17.491Z,7172
2017-02-04T10:58:17.473Z,8612
2017-02-04T10:59:17.465Z,9464
2017-02-04T11:00:17.455Z,8736
2017-02-04T11:01:17.448Z,5368
2017-02-04T11:02:17.054Z,5120
2017-02-04T11:03:17.434Z,5024
2017-02-04T11:04:17.421Z,5904
2017-02-04T11:05:17.415Z,8408
2017-02-04T11:06:17.407Z,9164
2017-02-04T11:07:17.397Z,9580
2017-02-04T11:08:17.384Z,10080
2017-02-04T11:09:17.378Z,10532
2017-02-04T11:10:17.372Z,8636
2017-02-04T11:11:16.973Z,8684
2017-02-04T11:12:17.623Z,8752
2017-02-04T11:13:17.343Z,10148
2017-02-04T11:14:17.335Z,9280
2017-02-04T11:15:17.326Z,9524
2017-02-04T11:16:16.925Z,6644
2017-02-04T11:17:17.307Z,7288
2017-02-04T11:18:17.297Z,8980
2017-02-04T11:19:16.904Z,9000
2017-02-04T11:20:17.279Z,9484
2017-02-04T11:21:17.271Z,8860
2017-02-04T11:22:17.258Z,9784
2017-02-04T11:23:17.252Z,9860
2017-02-04T11:24:17.246Z,9864
2017-02-04T11:25:17.236Z,10296
2017-02-04T11:26:17.232Z,10284
2017-02-04T11:27:17.221Z,10568
2017-02-04T11:28:17.206Z,12244
2017-02-04T11:29:17.200Z,12644
2017-02-04T11:30:17.187Z,13068
2017-02-04T11:31:17.178Z,12320
2017-02-04T11:32:16.787Z,12244
2017-02-04T11:33:17.162Z,11288
2017-02-04T11:34:17.182Z,11796
2017-02-04T11:35:17.147Z,12236
2017-02-04T11:36:17.136Z,12036
2017-02-04T11:37:17.132Z,10860
2017-02-04T11:38:17.122Z,11348
2017-02-04T11:39:17.111Z,12064
2017-02-04T11:40:16.719Z,11208
2017-02-04T11:41:17.094Z,11476
2017-02-04T11:42:17.084Z,12000
2017-02-04T11:43:17.082Z,12032
2017-02-04T11:44:17.068Z,11780
2017-02-04T11:45:16.681Z,12140
2017-02-04T11:46:17.067Z,11080
2017-02-04T11:47:17.040Z,10484
2017-02-04T11:48:17.038Z,10288
2017-02-04T11:49:17.023Z,10116
2017-02-04T11:50:17.021Z,10068
2017-02-04T11:51:17.016Z,10004
2017-02-04T11:52:17.007Z,9908
2017-02-04T11:53:17.032Z,9096
2017-02-04T11:54:16.980Z,9412
2017-02-04T11:55:16.981Z,10828
2017-02-04T11:56:16.971Z,11092
2017-02-04T11:57:16.997Z,11472
2017-02-04T11:58:16.572Z,11148
2017-02-04T11:59:16.942Z,12156
2017-02-04T12:00:16.939Z,12236
2017-02-04T12:01:16.920Z,12008
2017-02-04T12:02:16.533Z,11328
2017-02-04T12:03:16.910Z,10844
2017-02-04T12:04:16.902Z,9924
2017-02-04T12:05:16.897Z,9704
2017-02-04T12:06:16.888Z,9348
2017-02-04T12:07:16.877Z,9676
2017-02-04T12:08:16.866Z,10352
2017-02-04T12:09:16.863Z,10300
2017-02-04T12:10:16.851Z,11544
2017-02-04T12:11:16.850Z,12332
2017-02-04T12:12:16.830Z,12220
2017-02-04T12:13:16.823Z,12572
2017-02-04T12:14:16.819Z,11436
2017-02-04T12:15:16.807Z,9716
2017-02-04T12:16:16.801Z,8384
2017-02-04T12:17:16.788Z,7652
2017-02-04T12:18:16.787Z,6748
2017-02-04T12:19:16.778Z,6876
2017-02-04T12:20:16.770Z,6636
2017-02-04T12:21:16.759Z,6188
2017-02-04T12:22:16.757Z,6584
2017-02-04T12:23:16.741Z,7296
2017-02-04T12:24:16.733Z,9192
2017-02-04T12:25:16.731Z,10060
2017-02-04T12:26:16.716Z,10012
2017-02-04T12:27:16.704Z,10720
2017-02-04T12:28:16.703Z,10328
2017-02-04T12:29:16.688Z,9316
2017-02-04T12:30:16.681Z,8608
2017-02-04T12:31:16.675Z,8020
2017-02-04T12:32:16.272Z,8204
2017-02-04T12:33:16.659Z,7668
2017-02-04T12:34:16.259Z,7956
2017-02-04T12:35:16.632Z,8492
2017-02-04T12:36:16.631Z,8616
2017-02-04T12:37:16.620Z,8492
2017-02-04T12:38:16.610Z,8108
2017-02-04T12:39:16.599Z,7204
2017-02-04T12:40:16.596Z,6624
2017-02-04T12:41:16.611Z,6240
2017-02-04T12:42:16.578Z,6156
2017-02-04T12:43:16.568Z,6556
2017-02-04T12:44:16.561Z,6812
2017-02-04T12:45:16.543Z,8024
2017-02-04T12:46:16.551Z,9572
2017-02-04T12:47:16.526Z,10020
2017-02-04T12:48:16.524Z,11364
2017-02-04T12:49:16.508Z,11428
2017-02-04T12:50:16.502Z,12564
2017-02-04T12:51:16.495Z,11984
2017-02-04T12:52:16.096Z,10616
2017-02-04T12:53:16.479Z,9456
2017-02-04T12:54:16.468Z,8168
2017-02-04T12:55:16.451Z,7788
2017-02-04T12:56:16.746Z,7304
2017-02-04T12:57:16.439Z,6924
2017-02-04T12:58:16.431Z,6796
2017-02-04T12:59:16.420Z,7992
2017-02-04T13:00:16.410Z,9820
2017-02-04T13:01:16.398Z,12140
2017-02-04T13:02:16.006Z,12292
2017-02-04T13:03:16.383Z,11240
2017-02-04T13:04:16.376Z,9988
2017-02-04T13:05:16.364Z,8896
2017-02-04T13:06:16.356Z,8108
2017-02-04T13:07:16.345Z,8616
2017-02-04T13:08:16.337Z,8776
2017-02-04T13:09:15.942Z,8692
2017-02-04T13:10:16.349Z,8980
2017-02-04T13:11:16.314Z,8716
2017-02-04T13:12:15.922Z,8448
2017-02-04T13:13:16.296Z,8700
2017-02-04T13:14:15.896Z,10180
2017-02-04T13:15:16.281Z,11748
2017-02-04T13:16:16.265Z,10996
2017-02-04T13:17:15.879Z,9244
2017-02-04T13:18:16.258Z,8252
2017-02-04T13:19:16.243Z,7444
2017-02-04T13:20:16.232Z,6920
2017-02-04T13:21:16.226Z,6456
2017-02-04T13:22:16.212Z,6456
2017-02-04T13:23:15.825Z,7304
2017-02-04T13:24:16.200Z,8528
2017-02-04T13:25:16.194Z,8936
2017-02-04T13:26:16.224Z,8416
2017-02-04T13:27:16.178Z,7960
2017-02-04T13:28:16.161Z,7556
2017-02-04T13:29:16.154Z,6288
2017-02-04T13:30:15.762Z,5296
2017-02-04T13:31:16.137Z,4576
2017-02-04T13:32:15.739Z,4840
2017-02-04T13:33:16.126Z,4960
2017-02-04T13:34:16.111Z,5152
2017-02-04T13:35:16.102Z,5236
2017-02-04T13:36:16.089Z,5208
2017-02-04T13:37:16.082Z,5028
2017-02-04T13:38:15.688Z,5424
2017-02-04T13:39:16.069Z,5004
2017-02-04T13:40:16.056Z,5184
2017-02-04T13:41:16.042Z,5752
2017-02-04T13:42:16.040Z,6164
2017-02-04T13:43:16.030Z,6004
2017-02-04T13:44:16.021Z,6572
2017-02-04T13:45:15.628Z,7740
2017-02-04T13:46:15.617Z,9296
2017-02-04T13:47:15.603Z,9700
2017-02-04T13:48:15.217Z,7976
2017-02-04T13:49:15.587Z,6788
2017-02-04T13:50:15.974Z,6036
2017-02-04T13:51:15.572Z,5256
2017-02-04T13:52:15.565Z,4584
2017-02-04T13:53:15.556Z,5552
2017-02-04T13:54:15.541Z,6376
2017-02-04T13:55:15.920Z,6548